createdAt,value
2022-09-13T19:50:30.409Z,94940.78
2022-09-13T19:52:59.855Z,94940.31
2022-09-13T19:55:29.271Z,94939.94
2022-09-13T19:57:59.391Z,94932.44
2022-09-13T20:00:28.809Z,94927.66
2022-09-13T20:02:58.249Z,94925.41
2022-09-13T20:05:29.081Z,94924.81
2022-09-13T20:07:58.865Z,94924.97
2022-09-13T20:10:28.688Z,94932.47
2022-09-13T20:12:58.984Z,94930.25
2022-09-13T20:15:31.033Z,94921.94
2022-09-13T20:18:00.496Z,94914.75
2022-09-13T20:20:31.229Z,94909.19
2022-09-13T20:23:00.655Z,94914.59
2022-09-13T20:25:30.193Z,94913.66
2022-09-13T20:27:59.565Z,94912.69
2022-09-13T20:30:29.057Z,94908.69
2022-09-13T20:32:58.522Z,94910.44
2022-09-13T20:35:29.650Z,94900.22
2022-09-13T20:38:00.458Z,94905.81
2022-09-13T20:40:30.988Z,94909.63
2022-09-13T20:43:00.546Z,94909.19
2022-09-13T20:45:33.237Z,94907.91
2022-09-13T20:48:02.998Z,94912.03
2022-09-13T20:50:32.563Z,94906.63
2022-09-13T20:53:03.566Z,94919.38
2022-09-13T20:55:34.799Z,94915.06
2022-09-13T20:58:04.511Z,94916.66
2022-09-13T21:00:34.034Z,94920.66
2022-09-13T21:03:05.111Z,94919.03
2022-09-13T21:05:37.914Z,94923.69
2022-09-13T21:08:35.066Z,94919.84
2022-09-13T21:11:06.391Z,94926.69
2022-09-13T21:13:37.658Z,94926.69
2022-09-13T21:16:10.226Z,94930.22
2022-09-13T21:18:41.090Z,94924.00
2022-09-13T21:21:14.628Z,94927.50
2022-09-13T21:23:46.644Z,94926.69
2022-09-13T21:26:25.174Z,94927.03
2022-09-13T21:28:55.733Z,94928.94
2022-09-13T21:31:29.888Z,94936.75
2022-09-13T21:34:02.284Z,94935.16
2022-09-13T21:36:35.358Z,94931.31
2022-09-13T21:39:07.199Z,94931.00
2022-09-13T21:41:37.808Z,94939.63
2022-09-13T21:44:07.425Z,94947.78
2022-09-13T21:46:39.518Z,94949.41
2022-09-13T21:49:12.567Z,94954.66
2022-09-13T21:51:45.615Z,94964.88
2022-09-13T21:54:19.481Z,94968.06
2022-09-13T21:56:53.770Z,94965.53
2022-09-13T21:59:25.088Z,94963.94
2022-09-13T22:01:55.282Z,94965.34
2022-09-13T22:04:27.627Z,94962.31
2022-09-13T22:06:57.689Z,94965.53
2022-09-13T22:09:28.781Z,94951.31
2022-09-13T22:11:59.024Z,94919.41
2022-09-13T22:14:28.656Z,94898.31
2022-09-13T22:16:58.406Z,94908.03
2022-09-13T22:19:31.604Z,94915.06
2022-09-13T22:22:01.982Z,94911.72
2022-09-13T22:24:35.720Z,94920.97
2022-09-13T22:27:07.119Z,94914.59
2022-09-13T22:29:36.990Z,94908.69
2022-09-13T22:32:06.842Z,94905.47
2022-09-13T22:34:38.544Z,94908.19
2022-09-13T22:37:08.074Z,94912.03
2022-09-13T22:39:38.949Z,94912.81
2022-09-13T22:42:09.079Z,94919.41
2022-09-13T22:44:38.612Z,94918.91
2022-09-13T22:47:09.275Z,94913.16
2022-09-13T22:49:38.764Z,94906.16
2022-09-13T22:52:08.354Z,94904.56
2022-09-13T22:54:41.615Z,94907.59
2022-09-13T22:57:11.673Z,94897.84
2022-09-13T22:59:41.522Z,94902.47
2022-09-13T23:02:13.794Z,94905.03
2022-09-13T23:04:43.268Z,94917.00
2022-09-13T23:07:12.764Z,94903.75
2022-09-13T23:09:43.551Z,94908.38
2022-09-13T23:12:12.977Z,94923.22
2022-09-13T23:14:42.389Z,94924.03
2022-09-13T23:17:11.826Z,94922.91
2022-09-13T23:19:41.517Z,94910.78
2022-09-13T23:22:10.966Z,94902.63
2022-09-13T23:24:40.344Z,94907.41
2022-09-13T23:27:11.170Z,94912.06
2022-09-13T23:29:40.806Z,94913.97
2022-09-13T23:32:10.407Z,94914.94
2022-09-13T23:34:39.828Z,94905.66
2022-09-13T23:37:09.997Z,94899.91
2022-09-13T23:39:39.365Z,94890.97
2022-09-13T23:42:11.720Z,94896.41
2022-09-13T23:44:41.165Z,94892.41
2022-09-13T23:47:11.101Z,94894.63
2022-09-13T23:49:40.697Z,94885.22
2022-09-13T23:52:10.098Z,94881.22
2022-09-13T23:54:39.548Z,94879.63
2022-09-13T23:57:10.389Z,94886.16
2022-09-13T23:59:39.931Z,94883.47
